Time;durP1;ratioP1;P1;durP2;ratioP2;P2;SDS_P1;SDS_P2;PMS_P1;PMS_P2;Temp;Humidity;BMP_temperature;BMP_pressure;BME280_temperature;BME280_humidity;BME280_pressure;Samples;Min_cycle;Max_cycle;Signal;HPM_P1;HPM_P2
2024/02/18 06:02:12;;;;;;;15.23;9.90;;;6.30;90.70;;;;;;4094188;23;20279;-79
2024/02/18 06:04:14;;;;;;;16.35;9.77;;;6.20;90.20;;;;;;4085892;29;20147;-78
2024/02/18 06:06:15;;;;;;;13.52;9.65;;;6.20;89.40;;;;;;4085917;29;20139;-79
2024/02/18 06:08:18;;;;;;;14.35;9.68;;;6.20;90.00;;;;;;4085523;29;20056;-79
2024/02/18 06:10:20;;;;;;;14.25;9.48;;;6.20;90.10;;;;;;4085923;29;20055;-79
2024/02/18 06:12:22;;;;;;;15.25;10.10;;;6.30;89.70;;;;;;4085749;29;20055;-80
2024/02/18 06:14:24;;;;;;;16.05;10.05;;;6.30;89.20;;;;;;4085782;29;20469;-80
2024/02/18 06:16:25;;;;;;;14.27;9.88;;;6.30;89.00;;;;;;4085975;29;20052;-80
2024/02/18 06:18:28;;;;;;;15.00;10.52;;;6.20;88.30;;;;;;4083931;29;20046;-89
2024/02/18 06:20:32;;;;;;;18.05;10.20;;;6.20;88.20;;;;;;4082563;29;20052;-85
2024/02/18 06:22:34;;;;;;;17.13;10.00;;;6.20;88.40;;;;;;4085060;29;20070;-84
2024/02/18 06:24:37;;;;;;;15.15;9.85;;;6.30;88.40;;;;;;4085165;29;20051;-84
2024/02/18 06:26:40;;;;;;;15.13;9.82;;;6.30;87.90;;;;;;4088995;29;20079;-84
2024/02/18 06:28:42;;;;;;;13.57;9.35;;;6.30;87.80;;;;;;4089524;29;20074;-84
2024/02/18 06:30:43;;;;;;;15.75;10.18;;;6.20;86.80;;;;;;4088708;29;20134;-81
2024/02/18 06:32:45;;;;;;;15.57;9.95;;;6.10;86.20;;;;;;4086644;29;20051;-82
2024/02/18 06:34:48;;;;;;;15.25;9.55;;;6.10;86.70;;;;;;4084683;29;20050;-80
2024/02/18 06:36:50;;;;;;;15.52;9.82;;;6.10;86.10;;;;;;4086664;29;20043;-80
2024/02/18 06:38:52;;;;;;;13.77;9.50;;;6.00;86.00;;;;;;4085435;29;20102;-81
2024/02/18 06:40:54;;;;;;;16.63;9.75;;;6.00;86.20;;;;;;4084403;29;20103;-82
2024/02/18 06:42:57;;;;;;;14.13;9.68;;;6.00;87.20;;;;;;4086212;29;20122;-85
2024/02/18 06:44:59;;;;;;;15.05;10.10;;;6.00;86.00;;;;;;4085947;29;20078;-82
2024/02/18 06:47:01;;;;;;;13.75;9.85;;;6.00;85.20;;;;;;4070872;29;21174;-84
2024/02/18 06:49:03;;;;;;;15.68;9.75;;;5.90;84.80;;;;;;4087019;29;20052;-83
2024/02/18 06:51:06;;;;;;;14.27;9.32;;;5.80;84.70;;;;;;4070027;29;20056;-84
2024/02/18 06:53:09;;;;;;;19.35;10.40;;;5.90;84.80;;;;;;4085568;29;20052;-82
2024/02/18 06:55:11;;;;;;;19.75;10.57;;;5.90;85.10;;;;;;4087516;29;20430;-82
2024/02/18 06:57:13;;;;;;;16.55;10.27;;;5.90;85.30;;;;;;4085930;29;20059;-81
2024/02/18 06:59:16;;;;;;;16.55;9.70;;;5.90;85.30;;;;;;4081338;29;20130;-80
2024/02/18 07:01:23;;;;;;;16.75;10.68;;;6.00;85.60;;;;;;4080457;29;20478;-84
2024/02/18 07:03:25;;;;;;;15.07;10.15;;;5.90;86.00;;;;;;4083538;29;20047;-82
2024/02/18 07:05:27;;;;;;;17.67;9.90;;;6.00;85.70;;;;;;4084767;29;20476;-82
2024/02/18 07:07:31;;;;;;;16.20;9.80;;;6.00;85.70;;;;;;4085932;29;20478;-83
2024/02/18 07:09:33;;;;;;;13.80;9.68;;;5.90;85.90;;;;;;4080026;29;20067;-86
2024/02/18 07:11:37;;;;;;;15.07;9.50;;;5.80;85.10;;;;;;4085863;29;20401;-83
2024/02/18 07:13:40;;;;;;;14.43;9.07;;;5.80;86.00;;;;;;4089905;29;20098;-85
2024/02/18 07:15:41;;;;;;;17.33;10.52;;;5.90;86.20;;;;;;4092290;29;20058;-84
2024/02/18 07:17:44;;;;;;;16.92;9.45;;;5.90;86.20;;;;;;4087310;29;20107;-84
2024/02/18 07:19:46;;;;;;;14.02;9.32;;;6.00;86.10;;;;;;4087220;29;20059;-83
2024/02/18 07:21:48;;;;;;;14.43;8.98;;;6.00;86.00;;;;;;4087107;29;20083;-81
2024/02/18 07:23:51;;;;;;;15.88;9.55;;;6.10;85.90;;;;;;4087878;29;20047;-83
2024/02/18 07:28:09;;;;;;;16.35;9.32;;;6.10;85.90;;;;;;4100178;29;20075;-80
2024/02/18 07:30:13;;;;;;;14.90;8.93;;;6.10;85.90;;;;;;4099050;29;20052;-81
2024/02/18 07:32:14;;;;;;;14.13;9.40;;;6.20;86.20;;;;;;4098086;29;20079;-80
2024/02/18 07:34:21;;;;;;;15.23;9.80;;;6.20;86.30;;;;;;4096659;29;20051;-85
2024/02/18 07:36:23;;;;;;;15.25;9.40;;;6.20;86.70;;;;;;4076246;29;20060;-88
2024/02/18 07:38:26;;;;;;;16.45;9.60;;;6.20;87.00;;;;;;4095020;29;20478;-86
2024/02/18 07:40:30;;;;;;;15.35;9.48;;;6.20;87.30;;;;;;4076564;29;20482;-84
2024/02/18 07:42:32;;;;;;;17.35;10.27;;;6.30;87.30;;;;;;4074636;29;20123;-85
2024/02/18 07:44:34;;;;;;;15.95;9.50;;;6.30;87.70;;;;;;4073553;29;20091;-83
2024/02/18 07:46:37;;;;;;;17.30;10.48;;;6.30;87.80;;;;;;4090857;29;20044;-83
2024/02/18 07:48:38;;;;;;;17.33;10.98;;;6.40;87.60;;;;;;4083440;29;20054;-86
2024/02/18 07:50:41;;;;;;;16.67;10.50;;;6.40;87.50;;;;;;4091727;29;20061;-85
2024/02/18 07:52:42;;;;;;;14.25;10.43;;;6.40;87.50;;;;;;4087426;29;20097;-84
2024/02/18 07:54:47;;;;;;;21.23;13.30;;;6.50;87.20;;;;;;4086078;29;20055;-84
2024/02/18 07:56:51;;;;;;;20.80;13.13;;;6.50;87.40;;;;;;4091491;29;20056;-80
2024/02/18 07:58:53;;;;;;;19.75;12.18;;;6.50;87.70;;;;;;4063494;29;20052;-80
2024/02/18 08:00:56;;;;;;;19.55;12.82;;;6.40;88.00;;;;;;4094588;29;20178;-84
2024/02/18 08:02:59;;;;;;;21.52;11.98;;;6.40;88.80;;;;;;4094659;29;20051;-83
2024/02/18 08:05:01;;;;;;;16.92;10.50;;;6.30;89.50;;;;;;4096128;29;20062;-81
2024/02/18 08:07:05;;;;;;;15.63;9.65;;;6.30;89.70;;;;;;4095563;29;20044;-81
2024/02/18 08:09:15;;;;;;;14.90;10.40;;;6.20;90.20;;;;;;4068705;29;20056;-80
2024/02/18 08:13:45;;;;;;;15.43;10.68;;;6.40;90.20;;;;;;4103009;29;20116;-79
2024/02/18 08:15:48;;;;;;;16.38;10.07;;;6.50;90.20;;;;;;4093649;29;20118;-80
2024/02/18 08:17:50;;;;;;;17.77;11.23;;;6.60;90.30;;;;;;4091873;29;20075;-79
2024/02/18 08:19:52;;;;;;;16.40;9.88;;;6.60;90.50;;;;;;4086999;29;20054;-79
2024/02/18 08:21:55;;;;;;;15.50;10.43;;;6.60;90.40;;;;;;4094433;29;20083;-78
2024/02/18 08:23:58;;;;;;;16.88;11.10;;;6.70;90.80;;;;;;4094015;29;20450;-82
2024/02/18 08:26:01;;;;;;;18.20;11.00;;;6.70;90.80;;;;;;4099411;29;20116;-82
2024/02/18 08:28:03;;;;;;;17.67;10.15;;;6.60;91.10;;;;;;4093258;29;20039;-83
2024/02/18 08:30:10;;;;;;;15.45;10.25;;;6.70;90.90;;;;;;4086781;29;20048;-81
2024/02/18 08:32:13;;;;;;;15.15;10.63;;;6.80;90.80;;;;;;4102542;29;20069;-80
2024/02/18 08:34:16;;;;;;;17.88;11.18;;;6.80;90.70;;;;;;4094034;29;20066;-81
2024/02/18 08:36:18;;;;;;;18.30;10.70;;;6.80;90.90;;;;;;4092631;29;20055;-81
2024/02/18 08:38:21;;;;;;;15.23;10.68;;;6.90;90.90;;;;;;4097137;29;20056;-80
2024/02/18 08:40:23;;;;;;;17.20;11.20;;;7.00;90.80;;;;;;4102086;29;20175;-81
2024/02/18 08:42:25;;;;;;;17.13;10.07;;;7.00;90.40;;;;;;4101507;29;20092;-78
2024/02/18 08:44:27;;;;;;;14.30;9.88;;;7.20;90.10;;;;;;4090282;29;20062;-80
2024/02/18 08:46:32;;;;;;;13.55;9.32;;;7.20;89.90;;;;;;4089733;29;20054;-82
2024/02/18 08:48:33;;;;;;;14.20;9.90;;;7.30;89.50;;;;;;4084686;29;20558;-80
2024/02/18 08:50:34;;;;;;;16.02;10.07;;;7.40;88.90;;;;;;4084731;29;20118;-80
2024/02/18 08:52:37;;;;;;;12.32;9.20;;;7.50;88.30;;;;;;4091513;29;20051;-80
2024/02/18 08:54:41;;;;;;;18.85;10.48;;;7.60;87.90;;;;;;4086707;29;20056;-79
2024/02/18 08:56:44;;;;;;;15.98;9.95;;;7.70;87.40;;;;;;4084060;29;20106;-80
2024/02/18 08:58:46;;;;;;;14.98;9.80;;;7.70;87.30;;;;;;4083976;29;20084;-80
2024/02/18 09:00:48;;;;;;;14.10;9.85;;;7.80;87.00;;;;;;4086027;29;20064;-81
2024/02/18 09:02:52;;;;;;;14.30;9.43;;;7.90;87.20;;;;;;4093268;29;20055;-80
2024/02/18 09:04:59;;;;;;;15.90;9.63;;;8.00;87.00;;;;;;4092606;29;20171;-78
2024/02/18 09:07:01;;;;;;;15.00;9.18;;;8.00;87.00;;;;;;4082103;29;20056;-82
2024/02/18 09:09:02;;;;;;;15.43;9.52;;;8.00;87.20;;;;;;4084109;29;20048;-82
2024/02/18 09:11:04;;;;;;;12.90;9.30;;;8.00;87.30;;;;;;4086435;29;20052;-81
2024/02/18 09:13:07;;;;;;;14.77;9.00;;;8.10;87.30;;;;;;4082472;29;20044;-82
2024/02/18 09:15:10;;;;;;;15.98;9.55;;;8.20;86.80;;;;;;4084696;29;20044;-83
2024/02/18 09:17:12;;;;;;;14.65;9.07;;;8.30;86.60;;;;;;4086768;29;20082;-76
2024/02/18 09:19:16;;;;;;;14.80;9.75;;;8.40;86.40;;;;;;4089389;29;20134;-83
2024/02/18 09:21:18;;;;;;;15.25;10.55;;;8.40;87.50;;;;;;4080783;29;20047;-84
2024/02/18 09:23:21;;;;;;;32.28;21.77;;;8.40;87.10;;;;;;4089918;29;20059;-82
2024/02/18 09:25:23;;;;;;;23.55;16.15;;;8.40;87.20;;;;;;4092036;29;20075;-83
2024/02/18 09:27:25;;;;;;;22.08;15.48;;;8.50;87.00;;;;;;4093021;29;20055;-83
2024/02/18 09:29:29;;;;;;;16.10;11.35;;;8.60;86.80;;;;;;4091021;29;20074;-84
2024/02/18 09:31:35;;;;;;;15.63;10.82;;;8.70;86.20;;;;;;4101123;28;20048;-86
2024/02/18 09:33:36;;;;;;;15.80;10.52;;;8.80;85.50;;;;;;4087126;29;20478;-82
2024/02/18 09:35:44;;;;;;;16.20;10.32;;;8.90;85.10;;;;;;4092308;29;20047;-81
2024/02/18 09:37:46;;;;;;;15.13;9.23;;;9.00;84.90;;;;;;4093387;29;20047;-78
2024/02/18 09:39:49;;;;;;;15.00;9.57;;;9.10;84.30;;;;;;4082710;29;20505;-78
2024/02/18 09:41:52;;;;;;;13.35;9.40;;;9.20;84.20;;;;;;4090250;29;20047;-79
2024/02/18 09:43:58;;;;;;;13.85;9.43;;;9.30;83.80;;;;;;4088418;29;20048;-79
2024/02/18 09:46:03;;;;;;;14.63;9.50;;;9.40;83.40;;;;;;4089743;29;20043;-77
2024/02/18 09:48:08;;;;;;;13.15;9.13;;;9.50;83.30;;;;;;4088095;29;20052;-78
2024/02/18 09:50:11;;;;;;;16.30;9.35;;;9.50;82.70;;;;;;4084298;29;20091;-79
2024/02/18 09:52:19;;;;;;;13.25;8.65;;;9.60;82.40;;;;;;4092297;29;20103;-81
2024/02/18 09:54:21;;;;;;;12.55;8.45;;;9.60;82.30;;;;;;4090679;29;20055;-86
2024/02/18 09:56:23;;;;;;;15.38;9.13;;;9.70;81.90;;;;;;4089126;29;20035;-84
2024/02/18 09:58:25;;;;;;;12.88;8.95;;;9.90;81.70;;;;;;4083706;29;20051;-85
2024/02/18 10:00:26;;;;;;;13.93;9.57;;;9.90;81.70;;;;;;4083480;29;20043;-83
2024/02/18 10:02:29;;;;;;;17.52;9.93;;;10.00;81.90;;;;;;4088920;29;20055;-81
2024/02/18 10:04:31;;;;;;;14.32;9.63;;;10.10;82.00;;;;;;4091432;29;20051;-82
2024/02/18 10:06:33;;;;;;;14.98;10.25;;;10.20;81.60;;;;;;4089892;29;20044;-81
2024/02/18 10:08:43;;;;;;;15.57;9.98;;;10.30;81.40;;;;;;4086662;29;20056;-81
2024/02/18 10:10:46;;;;;;;14.35;9.23;;;10.30;80.50;;;;;;4077926;29;20051;-80
2024/02/18 10:12:48;;;;;;;12.60;8.98;;;10.40;80.40;;;;;;4080837;29;20044;-83
2024/02/18 10:14:57;;;;;;;14.30;9.20;;;10.40;79.40;;;;;;4084676;29;20053;-80
2024/02/18 10:16:59;;;;;;;13.48;9.05;;;10.50;79.30;;;;;;4080851;29;20039;-79
2024/02/18 10:19:01;;;;;;;13.32;8.70;;;10.60;79.10;;;;;;4084728;29;20059;-78
2024/02/18 10:21:04;;;;;;;11.77;8.55;;;10.70;78.50;;;;;;4082303;29;20436;-80
2024/02/18 10:23:06;;;;;;;13.60;8.55;;;10.70;77.80;;;;;;4080927;29;20515;-82
2024/02/18 10:25:11;;;;;;;12.02;8.27;;;10.80;77.80;;;;;;4083271;29;20048;-79
2024/02/18 10:27:13;;;;;;;12.88;8.27;;;10.90;77.10;;;;;;4079000;29;20052;-83
2024/02/18 10:29:15;;;;;;;13.07;8.05;;;10.90;76.50;;;;;;4080478;29;20091;-81
2024/02/18 10:31:17;;;;;;;14.02;8.00;;;11.00;76.60;;;;;;4080320;29;20079;-80
2024/02/18 10:33:20;;;;;;;10.27;7.60;;;11.10;76.20;;;;;;4083862;29;20425;-80
2024/02/18 10:35:22;;;;;;;11.50;8.10;;;11.20;75.50;;;;;;4082789;29;20044;-77
2024/02/18 10:37:30;;;;;;;11.95;7.90;;;11.30;75.70;;;;;;4082330;29;20051;-79
2024/02/18 10:39:34;;;;;;;12.02;7.30;;;11.40;75.00;;;;;;4080675;29;20059;-79
2024/02/18 10:41:48;;;;;;;12.45;8.00;;;11.50;74.80;;;;;;4079119;29;20102;-79
2024/02/18 10:43:53;;;;;;;12.05;8.02;;;11.60;74.40;;;;;;4083491;29;20056;-79
2024/02/18 10:45:55;;;;;;;11.15;6.63;;;11.60;74.50;;;;;;4074577;29;20048;-78
2024/02/18 10:48:00;;;;;;;11.20;6.93;;;11.80;75.20;;;;;;4076407;29;20047;-78
2024/02/18 10:50:06;;;;;;;10.60;7.03;;;11.80;75.00;;;;;;4080386;29;20056;-78
2024/02/18 10:52:16;;;;;;;11.85;7.45;;;11.90;74.40;;;;;;4081518;29;20110;-80
2024/02/18 10:54:38;;;;;;;11.40;7.32;;;12.00;73.60;;;;;;4085719;29;20082;-84
2024/02/18 10:56:42;;;;;;;13.40;8.27;;;12.10;73.60;;;;;;4082367;29;20052;-85
2024/02/18 10:58:57;;;;;;;14.25;8.05;;;12.20;73.80;;;;;;4086110;29;20060;-76
2024/02/18 11:01:03;;;;;;;13.90;8.55;;;12.20;73.10;;;;;;4078835;29;20470;-83
2024/02/18 11:03:12;;;;;;;10.05;6.95;;;12.30;71.50;;;;;;4079210;29;20066;-86
2024/02/18 11:05:15;;;;;;;11.23;7.75;;;12.30;71.20;;;;;;4072346;29;20060;-76
2024/02/18 11:07:18;;;;;;;11.32;7.38;;;12.40;70.90;;;;;;4077681;29;20051;-78
2024/02/18 11:09:21;;;;;;;13.95;7.68;;;12.40;70.30;;;;;;4075024;29;20051;-81
2024/02/18 11:11:22;;;;;;;10.18;6.50;;;12.50;71.00;;;;;;4083956;29;20051;-78
2024/02/18 11:13:28;;;;;;;10.05;6.95;;;12.50;69.40;;;;;;4090665;29;20052;-90
2024/02/18 11:15:29;;;;;;;;;;;12.50;69.00;;;;;;4095437;29;20457;-86
2024/02/18 11:17:31;;;;;;;11.57;6.95;;;12.60;69.30;;;;;;4098609;29;19954;-85
2024/02/18 11:19:35;;;;;;;11.85;7.40;;;12.70;70.20;;;;;;4095866;29;20111;-90
2024/02/18 11:21:37;;;;;;;13.93;7.80;;;12.70;69.70;;;;;;4095402;29;20093;-86
2024/02/18 11:23:46;;;;;;;11.68;7.32;;;12.70;69.90;;;;;;4090859;29;20055;-83
2024/02/18 11:25:48;;;;;;;10.90;7.13;;;12.70;68.70;;;;;;4090859;29;20106;-85
2024/02/18 11:27:52;;;;;;;10.65;7.15;;;12.70;67.80;;;;;;4092463;29;20489;-84
2024/02/18 11:29:55;;;;;;;10.60;6.68;;;12.70;68.10;;;;;;4090261;29;20063;-83
2024/02/18 11:31:57;;;;;;;9.18;6.55;;;12.70;68.50;;;;;;4083922;29;20048;-81
2024/02/18 11:33:59;;;;;;;10.98;6.82;;;12.70;69.10;;;;;;4079224;29;20048;-84
2024/02/18 11:36:11;;;;;;;9.98;6.72;;;12.70;68.50;;;;;;4082528;29;20048;-82
2024/02/18 11:38:13;;;;;;;10.00;7.13;;;12.70;67.60;;;;;;4080532;29;20058;-81
2024/02/18 11:40:18;;;;;;;11.75;7.50;;;12.70;68.40;;;;;;4078375;29;20473;-78
2024/02/18 11:42:20;;;;;;;12.02;7.32;;;12.80;68.50;;;;;;4082190;29;20051;-80
2024/02/18 11:44:22;;;;;;;11.82;7.18;;;12.80;68.00;;;;;;4082094;29;20437;-79
2024/02/18 11:46:27;;;;;;;9.57;6.85;;;12.80;67.20;;;;;;4077596;29;20048;-81
2024/02/18 11:48:29;;;;;;;10.27;7.70;;;12.80;67.70;;;;;;4072602;29;20114;-80
2024/02/18 11:50:31;;;;;;;12.63;7.70;;;12.80;67.50;;;;;;4086613;29;20114;-82
2024/02/18 11:52:34;;;;;;;10.65;7.05;;;12.80;66.90;;;;;;4084549;29;20043;-78
2024/02/18 11:54:37;;;;;;;9.57;7.15;;;12.90;67.20;;;;;;4078776;29;20098;-80
2024/02/18 11:56:39;;;;;;;10.30;7.35;;;13.00;66.90;;;;;;4078064;29;20552;-80
2024/02/18 11:58:41;;;;;;;11.25;7.47;;;13.10;66.80;;;;;;4086223;29;20059;-83
2024/02/18 12:00:43;;;;;;;11.98;7.80;;;13.10;66.60;;;;;;4080108;29;20492;-90
2024/02/18 12:02:50;;;;;;;12.18;7.80;;;13.00;67.00;;;;;;4083931;29;20059;-84
2024/02/18 12:04:54;;;;;;;10.45;7.53;;;13.00;67.80;;;;;;4081033;29;20044;-87
2024/02/18 12:06:58;;;;;;;11.07;7.85;;;13.20;68.00;;;;;;4080382;29;20048;-89
2024/02/18 12:09:04;;;;;;;11.18;7.22;;;13.30;67.80;;;;;;4088729;29;20481;-85
2024/02/18 12:11:06;;;;;;;10.10;7.32;;;13.40;67.70;;;;;;4073642;29;20383;-84
2024/02/18 12:13:08;;;;;;;11.00;7.32;;;13.50;67.60;;;;;;4086791;29;20086;-87
2024/02/18 12:15:19;;;;;;;10.85;7.20;;;13.50;67.10;;;;;;4087280;29;20457;-83
2024/02/18 12:17:22;;;;;;;9.65;6.75;;;13.60;66.70;;;;;;4081088;29;20048;-86
2024/02/18 12:19:25;;;;;;;10.30;6.60;;;13.60;65.90;;;;;;4088683;29;20111;-79
2024/02/18 12:21:27;;;;;;;9.43;6.85;;;13.50;64.40;;;;;;4082586;29;20142;-82
2024/02/18 12:23:30;;;;;;;10.85;7.28;;;13.40;65.50;;;;;;4079214;29;20051;-79
2024/02/18 12:25:36;;;;;;;9.10;7.00;;;13.40;65.40;;;;;;4079103;29;20067;-79
2024/02/18 12:27:38;;;;;;;9.65;6.57;;;13.40;65.90;;;;;;4076159;29;20060;-79
2024/02/18 12:29:40;;;;;;;10.40;7.22;;;13.40;66.30;;;;;;4079259;29;20405;-76
2024/02/18 12:31:43;;;;;;;11.68;6.95;;;13.40;65.60;;;;;;4083607;29;20126;-78
2024/02/18 12:33:45;;;;;;;10.32;7.25;;;13.30;65.90;;;;;;4079289;29;20052;-76
2024/02/18 12:35:49;;;;;;;11.77;6.75;;;13.40;66.80;;;;;;4079527;29;20082;-82
2024/02/18 12:37:50;;;;;;;8.88;6.20;;;13.50;65.10;;;;;;4081424;29;20056;-82
2024/02/18 12:39:52;;;;;;;12.35;7.15;;;13.40;65.70;;;;;;4081972;29;20397;-83
2024/02/18 12:41:54;;;;;;;9.55;6.40;;;13.50;65.80;;;;;;4081882;29;20084;-80
2024/02/18 12:43:57;;;;;;;9.48;5.97;;;13.40;63.90;;;;;;4085002;29;20051;-79
2024/02/18 12:46:00;;;;;;;9.57;5.90;;;13.40;64.50;;;;;;4086714;29;20110;-83
2024/02/18 12:48:06;;;;;;;10.25;6.88;;;13.40;64.30;;;;;;4083159;29;20052;-80
2024/02/18 12:50:08;;;;;;;11.77;7.30;;;13.40;63.40;;;;;;4085818;29;20048;-82
2024/02/18 12:52:15;;;;;;;7.20;4.70;;;13.40;63.10;;;;;;4087082;29;20047;-83
2024/02/18 12:54:20;;;;;;;9.75;4.82;;;13.50;62.90;;;;;;4084433;29;20497;-79
2024/02/18 12:56:24;;;;;;;6.95;4.38;;;13.40;61.30;;;;;;4080666;29;20080;-81
2024/02/18 12:58:26;;;;;;;7.20;4.32;;;13.20;60.70;;;;;;4079212;29;20047;-83
2024/02/18 13:00:29;;;;;;;8.32;4.28;;;13.10;61.30;;;;;;4080609;29;20470;-80
2024/02/18 13:02:31;;;;;;;6.72;4.47;;;13.10;61.80;;;;;;4079402;29;20178;-84
2024/02/18 13:04:33;;;;;;;6.95;4.47;;;13.10;62.10;;;;;;4082844;29;20055;-80
2024/02/18 13:06:36;;;;;;;6.68;4.53;;;13.20;62.20;;;;;;4085930;29;20055;-78
2024/02/18 13:08:40;;;;;;;6.63;4.43;;;13.10;63.00;;;;;;4081914;29;20054;-79
2024/02/18 13:10:42;;;;;;;8.70;4.90;;;13.00;63.20;;;;;;4074557;29;20048;-82
2024/02/18 13:12:43;;;;;;;7.07;4.75;;;13.00;63.20;;;;;;4072948;29;20056;-81
2024/02/18 13:14:45;;;;;;;7.57;4.70;;;13.10;63.80;;;;;;4083984;29;20047;-78
2024/02/18 13:16:47;;;;;;;7.90;5.32;;;13.10;64.30;;;;;;4085075;29;20051;-79
2024/02/18 13:18:49;;;;;;;8.93;5.15;;;13.10;64.60;;;;;;4077562;29;20064;-76
2024/02/18 13:20:51;;;;;;;8.32;5.30;;;13.00;65.20;;;;;;4082613;29;20100;-78
2024/02/18 13:22:53;;;;;;;8.18;5.18;;;13.10;65.70;;;;;;4083313;29;20056;-77
2024/02/18 13:24:55;;;;;;;8.50;5.82;;;13.00;65.30;;;;;;4079498;29;20055;-80
2024/02/18 13:26:57;;;;;;;9.68;5.30;;;13.00;65.10;;;;;;4083620;29;20123;-79
2024/02/18 13:29:00;;;;;;;9.57;5.55;;;12.90;65.60;;;;;;4083003;29;20051;-76
2024/02/18 13:31:01;;;;;;;8.30;5.38;;;12.90;66.20;;;;;;4083330;29;20086;-80
2024/02/18 13:33:04;;;;;;;7.88;5.10;;;12.90;66.70;;;;;;4077609;29;20115;-79
2024/02/18 13:35:08;;;;;;;8.98;5.43;;;12.90;67.10;;;;;;4081350;29;20106;-76
2024/02/18 13:37:10;;;;;;;9.48;5.70;;;12.90;67.20;;;;;;4078626;29;20047;-78
2024/02/18 13:39:15;;;;;;;9.65;6.00;;;12.90;67.70;;;;;;4081319;29;20523;-80
2024/02/18 13:41:18;;;;;;;8.20;5.30;;;12.90;67.90;;;;;;4084698;29;20495;-80
2024/02/18 13:43:19;;;;;;;8.95;5.72;;;13.00;67.80;;;;;;4076804;29;20577;-78
2024/02/18 13:45:21;;;;;;;9.55;6.60;;;13.10;67.90;;;;;;4082989;29;20111;-78
2024/02/18 13:47:23;;;;;;;9.55;6.13;;;13.00;67.30;;;;;;4082523;29;20051;-81
2024/02/18 13:49:25;;;;;;;10.65;6.70;;;13.00;67.70;;;;;;4078800;29;20489;-80
2024/02/18 13:51:27;;;;;;;10.75;7.40;;;13.00;68.00;;;;;;4083098;29;20106;-79
2024/02/18 13:53:28;;;;;;;9.50;6.50;;;13.10;67.70;;;;;;4076862;29;20170;-80
2024/02/18 13:55:30;;;;;;;9.77;6.60;;;13.10;68.30;;;;;;4077769;29;20102;-80
2024/02/18 13:57:33;;;;;;;10.23;7.00;;;13.20;68.30;;;;;;4086223;29;20114;-84
2024/02/18 13:59:35;;;;;;;10.07;6.47;;;13.20;68.20;;;;;;4086170;29;20054;-80
2024/02/18 14:01:37;;;;;;;11.23;6.97;;;13.10;68.20;;;;;;4079195;29;20043;-82
2024/02/18 14:03:40;;;;;;;11.02;7.30;;;13.10;68.70;;;;;;4079569;29;20475;-83
2024/02/18 14:05:42;;;;;;;12.63;7.93;;;13.10;68.60;;;;;;4072510;29;20044;-83
2024/02/18 14:07:44;;;;;;;10.80;7.35;;;13.10;68.50;;;;;;4079357;29;20078;-81
2024/02/18 14:09:48;;;;;;;11.82;8.18;;;13.20;68.40;;;;;;4079932;29;20043;-84
2024/02/18 14:11:50;;;;;;;10.18;7.18;;;13.10;68.60;;;;;;4081646;29;20067;-79
2024/02/18 14:13:53;;;;;;;11.13;7.50;;;13.20;68.40;;;;;;4086175;29;20409;-83
2024/02/18 14:15:56;;;;;;;12.45;7.95;;;13.40;67.80;;;;;;4082421;29;20063;-87
2024/02/18 14:17:59;;;;;;;11.85;7.25;;;13.50;67.30;;;;;;4089443;29;20048;-84
2024/02/18 14:20:00;;;;;;;10.05;7.07;;;13.50;67.30;;;;;;4087755;29;20059;-83
2024/02/18 14:22:02;;;;;;;10.40;6.85;;;13.60;67.00;;;;;;4075148;29;20075;-82
2024/02/18 14:24:05;;;;;;;11.45;7.40;;;13.60;67.10;;;;;;4084709;29;20051;-82
2024/02/18 14:26:07;;;;;;;10.02;6.78;;;13.70;67.00;;;;;;4079026;29;20048;-81
2024/02/18 14:28:09;;;;;;;11.27;7.90;;;13.70;67.40;;;;;;4081716;29;20051;-82
2024/02/18 14:30:13;;;;;;;12.50;7.85;;;13.70;67.30;;;;;;4079389;29;20108;-83
2024/02/18 14:32:16;;;;;;;10.00;6.90;;;13.70;66.90;;;;;;4073631;29;20180;-82
2024/02/18 14:34:17;;;;;;;12.32;7.35;;;13.50;67.60;;;;;;4084359;29;20120;-82
2024/02/18 14:36:19;;;;;;;10.85;6.93;;;13.50;67.90;;;;;;4088516;29;20498;-81
2024/02/18 14:38:27;;;;;;;11.00;7.68;;;13.60;68.00;;;;;;4087976;29;20074;-81
2024/02/18 14:40:28;;;;;;;11.82;7.60;;;13.60;67.90;;;;;;4081639;29;20091;-79
2024/02/18 14:42:30;;;;;;;10.68;7.22;;;13.60;67.80;;;;;;4086864;29;20052;-79
2024/02/18 14:44:32;;;;;;;13.13;7.55;;;13.60;67.90;;;;;;4088960;29;20073;-79
2024/02/18 14:46:35;;;;;;;12.25;7.35;;;13.80;68.30;;;;;;4087386;29;20055;-78
2024/02/18 14:48:37;;;;;;;11.63;7.13;;;14.60;66.00;;;;;;4073446;29;20052;-80
2024/02/18 14:50:40;;;;;;;11.95;7.47;;;14.40;64.60;;;;;;4071090;29;20108;-81
2024/02/18 14:52:43;;;;;;;10.48;7.18;;;14.30;65.30;;;;;;4077894;29;20051;-79
2024/02/18 14:54:45;;;;;;;9.48;6.55;;;14.00;66.10;;;;;;4089075;29;20059;-79
2024/02/18 14:56:47;;;;;;;13.13;7.30;;;13.80;66.60;;;;;;4086098;29;20048;-79
2024/02/18 14:58:49;;;;;;;10.48;7.03;;;13.50;67.30;;;;;;4091222;29;20056;-81
2024/02/18 15:00:52;;;;;;;10.80;7.10;;;13.40;68.10;;;;;;4084032;29;20047;-80
2024/02/18 15:02:57;;;;;;;10.88;7.30;;;13.40;67.90;;;;;;4089117;29;20052;-80
2024/02/18 15:04:58;;;;;;;10.48;6.50;;;13.40;68.10;;;;;;4085167;29;20547;-79
2024/02/18 15:07:00;;;;;;;11.15;7.07;;;13.40;68.30;;;;;;4090885;29;20059;-79
2024/02/18 15:09:03;;;;;;;11.75;7.45;;;13.30;69.00;;;;;;4085539;29;20039;-80
2024/02/18 15:11:05;;;;;;;10.60;6.85;;;13.30;68.80;;;;;;4089407;29;20059;-81
2024/02/18 15:13:07;;;;;;;10.85;6.43;;;13.30;67.80;;;;;;4085421;29;20075;-80
2024/02/18 15:15:10;;;;;;;11.65;7.35;;;13.20;67.80;;;;;;4086284;29;20056;-80
2024/02/18 15:17:12;;;;;;;10.90;7.57;;;13.10;68.40;;;;;;4083923;29;20469;-80
2024/02/18 15:19:16;;;;;;;11.80;7.35;;;12.90;68.90;;;;;;4088352;29;20043;-81
2024/02/18 15:21:18;;;;;;;9.52;6.88;;;12.90;68.60;;;;;;4085022;29;20139;-80
2024/02/18 15:23:20;;;;;;;10.07;7.00;;;12.90;69.20;;;;;;4084842;29;20142;-82
2024/02/18 15:25:22;;;;;;;13.05;7.22;;;12.90;69.00;;;;;;4086133;29;20418;-79
2024/02/18 15:27:24;;;;;;;11.25;7.38;;;12.80;69.30;;;;;;4087553;29;20824;-82
2024/02/18 15:29:27;;;;;;;13.15;7.47;;;12.90;69.50;;;;;;4086104;29;20047;-81
2024/02/18 15:31:29;;;;;;;10.80;7.38;;;12.80;69.70;;;;;;4084055;29;20168;-81
2024/02/18 15:33:31;;;;;;;10.93;7.38;;;12.80;70.30;;;;;;4086580;29;20053;-81
2024/02/18 15:35:34;;;;;;;10.95;7.55;;;12.80;70.80;;;;;;4083864;29;20064;-81
2024/02/18 15:37:37;;;;;;;11.80;7.68;;;12.80;70.80;;;;;;4084160;29;20047;-81
2024/02/18 15:39:38;;;;;;;11.35;7.30;;;12.70;70.80;;;;;;4082818;29;20047;-82
2024/02/18 15:41:40;;;;;;;13.75;7.85;;;12.70;71.30;;;;;;4080865;29;20114;-80
2024/02/18 15:43:43;;;;;;;10.43;6.93;;;12.70;71.90;;;;;;4082508;29;20485;-80
2024/02/18 15:45:44;;;;;;;11.20;7.70;;;12.70;72.30;;;;;;4081973;29;20103;-80
2024/02/18 15:47:46;;;;;;;11.50;7.50;;;12.60;72.60;;;;;;4082233;29;20135;-80
2024/02/18 15:49:48;;;;;;;12.00;8.25;;;12.60;72.60;;;;;;4084651;29;20051;-79
2024/02/18 15:51:51;;;;;;;11.65;8.07;;;12.50;72.70;;;;;;4089859;29;20062;-82
2024/02/18 15:53:54;;;;;;;11.55;7.80;;;12.50;73.00;;;;;;4084595;29;20379;-79
2024/02/18 15:55:56;;;;;;;12.35;8.40;;;12.50;73.20;;;;;;4089269;29;20051;-79
2024/02/18 15:57:58;;;;;;;13.63;8.20;;;12.40;73.00;;;;;;4091426;29;20059;-80
2024/02/18 16:00:03;;;;;;;12.15;8.50;;;12.40;73.50;;;;;;4089960;29;20119;-79
2024/02/18 16:02:05;;;;;;;14.57;9.27;;;12.30;73.40;;;;;;4084392;29;20060;-78
2024/02/18 16:04:06;;;;;;;11.98;8.25;;;12.30;73.40;;;;;;4083076;29;20102;-78
2024/02/18 16:06:08;;;;;;;12.80;8.68;;;12.30;73.30;;;;;;4083748;29;20055;-80
2024/02/18 16:08:14;;;;;;;12.05;8.25;;;12.40;73.20;;;;;;4087584;29;20055;-77
2024/02/18 16:10:23;;;;;;;11.55;7.55;;;12.40;73.30;;;;;;4084140;29;20111;-76
2024/02/18 16:12:25;;;;;;;11.30;7.70;;;12.40;72.70;;;;;;4083902;29;20420;-77
2024/02/18 16:14:27;;;;;;;10.20;6.47;;;12.40;72.80;;;;;;4083807;29;20521;-78
2024/02/18 16:16:29;;;;;;;11.20;6.60;;;12.30;71.80;;;;;;4082639;29;20079;-78
2024/02/18 16:18:30;;;;;;;11.15;7.05;;;12.30;71.30;;;;;;4083792;29;20103;-77
2024/02/18 16:20:32;;;;;;;10.70;6.65;;;12.20;71.50;;;;;;4084582;29;20043;-79
2024/02/18 16:22:34;;;;;;;10.50;6.65;;;12.20;71.30;;;;;;4082989;29;20044;-78
2024/02/18 16:24:38;;;;;;;9.55;6.28;;;12.20;71.20;;;;;;4083796;29;20465;-77
2024/02/18 16:26:41;;;;;;;10.45;6.25;;;12.20;71.20;;;;;;4087439;29;20055;-77
2024/02/18 16:28:43;;;;;;;9.57;6.32;;;12.20;71.30;;;;;;4087471;29;20075;-78
2024/02/18 16:30:45;;;;;;;9.73;6.50;;;12.20;71.00;;;;;;4090682;29;20052;-79
2024/02/18 16:32:47;;;;;;;10.52;6.03;;;12.10;71.30;;;;;;4083227;29;20040;-77
2024/02/18 16:34:48;;;;;;;9.68;6.50;;;12.20;71.50;;;;;;4084021;29;20051;-82
2024/02/18 16:36:50;;;;;;;10.52;6.28;;;12.20;71.10;;;;;;4087019;29;20114;-82
2024/02/18 16:38:51;;;;;;;9.35;6.78;;;12.10;71.30;;;;;;4092702;29;20047;-82
2024/02/18 16:41:15;;;;;;;9.90;5.95;;;12.10;71.40;;;;;;4082539;29;20047;-81